Weather History for KSGS - April, 2013

Change the Weather History Date:

Tuesday, April 9, 2013

  Actual Average (KMSP) Record (KMSP)
Temperature  
Mean Temperature 38 °F 44 °F  
Max Temperature 43 °F 55 °F 81 °F (1930)
Min Temperature 33 °F 34 °F 15 °F (1997)
Degree Days  
Heating Degree Days 26 21  
Month to date heating degree days 205  
Since 1 July heating degree days 6993  
Cooling Degree Days 0 0  
Month to date cooling degree days 0  
Year to date cooling degree days 0  
Moisture  
Dew Point 33 °F    
Average Humidity 81    
Maximum Humidity 99    
Minimum Humidity 57    
Precipitation  
Precipitation 0.40 in 0.08 in 0.75 in (1919)
Month to date precipitation 0.68  
Year to date precipitation 4.24  
Snow  
Snow 0.00 in 0.10 in 5.50 in (1894)
Month to date snowfall 1.0  
Since 1 July snowfall 53.0  
Snow Depth -    
Sea Level Pressure  
Sea Level Pressure 30.05 in    
Wind  
Wind Speed 10 mph (NNE)    
Max Wind Speed 17 mph    
Max Gust Speed 23 mph    
Visibility 9 miles    
Events Rain , Snow    
T = Trace of Precipitation, MM = Missing Value Source: NWS Daily Summary

Daily Weather History Graph

Daily Weather History Graph

Search for Another Location

Airport or City:

Trip Planner

Search our weather history database for the weather conditions in past years. The results will help you decide how hot, cold, wet, or windy it might be!

Date:

Astronomy

Apr. 09, 2013 Rise Set
Actual Time 6:37 AM CDT 7:50 PM CDT
Civil Twilight 6:07 AM CDT 8:20 PM CDT
Nautical Twilight 5:31 AM CDT 8:56 PM CDT
Astronomical Twilight 4:53 AM CDT 9:35 PM CDT
Moon 6:01 AM CDT (4/9) 7:26 PM CDT (4/9)
Length of Visible Light 14h 12m
Length of Day
13h 12m
Waning Crescent, 1% of the Moon is Illuminated
Apr 9
Waning Crescent
Apr 10
New
Apr 18
First Quarter
Apr 25
Full
May 2
Last Quarter

Hourly Weather History & Observations

Time (CDT) Temp. Windchill Dew Point Humidity Pressure Visibility Wind Dir Wind Speed Gust Speed Precip Events Conditions
12:12 AM 41.0 °F 35.8 °F 36.9 °F 85% 30.04 in 10.0 mi NNE 8.1 mph - N/A   Overcast
12:32 AM 40.6 °F 35.4 °F 36.7 °F 86% 30.04 in 10.0 mi NNE 8.1 mph - N/A   Overcast
12:53 AM 40.6 °F 34.8 °F 36.5 °F 85% 30.04 in 10.0 mi NNE 9.2 mph - N/A   Overcast
1:12 AM 40.5 °F 36.5 °F 36.1 °F 85% 30.03 in 10.0 mi NE 5.8 mph - N/A   Overcast
1:33 AM 40.1 °F 34.1 °F 35.6 °F 84% 30.02 in 10.0 mi NE 9.2 mph - N/A   Overcast
1:53 AM 40.1 °F 35.3 °F 35.6 °F 84% 30.02 in 10.0 mi NE 6.9 mph - N/A   Overcast
2:12 AM 40.1 °F 35.3 °F 35.6 °F 84% 30.01 in 10.0 mi NNE 6.9 mph - N/A   Overcast
2:33 AM 40.1 °F 34.1 °F 35.6 °F 84% 30.01 in 10.0 mi NNE 9.2 mph - N/A   Overcast
2:52 AM 39.7 °F 34.3 °F 35.6 °F 85% 29.99 in 10.0 mi NNE 8.1 mph - N/A   Overcast
3:12 AM 39.6 °F 34.0 °F 35.6 °F 86% 29.97 in 10.0 mi NNE 8.1 mph - N/A   Overcast
3:33 AM 39.6 °F 34.0 °F 35.6 °F 86% 30.01 in 10.0 mi NE 8.1 mph - N/A   Overcast
3:52 AM 39.4 °F 35.2 °F 35.6 °F 86% 30.04 in 10.0 mi NE 5.8 mph - N/A   Overcast
4:12 AM 39.2 °F 33.0 °F 35.2 °F 86% 30.04 in 10.0 mi NNE 9.2 mph - N/A   Overcast
4:33 AM 38.8 °F 33.2 °F 35.2 °F 87% 30.04 in 10.0 mi NNE 8.1 mph - N/A   Overcast
4:52 AM 38.7 °F 32.4 °F 35.2 °F 87% 30.04 in 10.0 mi NNE 9.2 mph - N/A   Overcast
5:13 AM 38.5 °F 32.7 °F 34.9 °F 87% 30.04 in 10.0 mi NNE 8.1 mph - N/A   Overcast
5:33 AM 38.7 °F 33.6 °F 34.7 °F 86% 30.04 in 10.0 mi NNE 6.9 mph - N/A   Overcast
5:52 AM 38.7 °F 30.5 °F 34.3 °F 84% 30.03 in 10.0 mi NNE 13.8 mph 18.4 mph N/A   Overcast
6:13 AM 38.3 °F 30.5 °F 33.8 °F 84% 30.03 in 10.0 mi NNE 12.7 mph 18.4 mph N/A   Overcast
6:32 AM 38.3 °F 30.9 °F 33.8 °F 84% 30.03 in 10.0 mi NNE 11.5 mph 16.1 mph N/A   Light Drizzle
7:12 AM 38.5 °F 33.4 °F 33.6 °F 83% 30.04 in 10.0 mi NNE 6.9 mph 17.3 mph N/A   Overcast
7:32 AM 38.3 °F 32.5 °F 33.3 °F 82% 30.04 in 10.0 mi NNE 8.1 mph - N/A   Overcast
7:53 AM 38.3 °F 31.9 °F 33.3 °F 82% 30.04 in 10.0 mi NNE 9.2 mph 17.3 mph N/A   Light Drizzle
8:13 AM 38.3 °F 31.4 °F 33.8 °F 84% 30.04 in 10.0 mi NNE 10.4 mph 18.4 mph N/A Rain Light Rain
8:32 AM 37.8 °F 29.0 °F 33.8 °F 86% 30.02 in 10.0 mi NNE 15.0 mph 19.6 mph N/A Rain Light Rain
8:53 AM 37.4 °F 28.9 °F 34.0 °F 87% 30.02 in 10.0 mi NNE 13.8 mph - 0.01 in Rain Light Rain
9:12 AM 37.0 °F 28.9 °F 33.8 °F 88% 30.02 in 10.0 mi NNE 12.7 mph - N/A   Light Drizzle
9:33 AM 36.9 °F 30.1 °F 34.0 °F 89% 30.03 in 7.0 mi NNE 9.2 mph - 0.01 in Rain Light Rain
9:53 AM 36.0 °F 28.5 °F 34.7 °F 95% 30.02 in 5.0 mi North 10.4 mph 20.7 mph 0.03 in Rain Light Rain
10:12 AM 35.8 °F 28.3 °F 35.1 °F 97% 30.03 in 5.0 mi NNE 10.4 mph - 0.02 in Rain Light Rain
10:33 AM 35.8 °F 28.3 °F 35.2 °F 98% 30.05 in 5.0 mi NNE 10.4 mph - 0.06 in Rain Light Rain
10:52 AM 35.8 °F 27.8 °F 35.2 °F 98% 30.05 in 4.0 mi North 11.5 mph 18.4 mph 0.10 in Rain Light Rain
11:12 AM 35.8 °F 28.8 °F 35.2 °F 98% 30.06 in 3.0 mi North 9.2 mph - 0.04 in Rain Light Rain
11:33 AM 36.1 °F 29.3 °F 35.6 °F 98% 30.06 in 4.0 mi North 9.2 mph - 0.10 in Rain Light Rain
11:52 AM 36.1 °F 27.7 °F 35.8 °F 99% 30.07 in 4.0 mi North 12.7 mph - 0.12 in Rain Light Rain
12:13 PM 36.1 °F 28.2 °F 35.8 °F 99% 30.06 in 5.0 mi North 11.5 mph 18.4 mph 0.02 in Rain Light Rain
12:33 PM 36.5 °F 28.7 °F 36.0 °F 98% 30.06 in 7.0 mi North 11.5 mph 19.6 mph 0.02 in   Light Drizzle
12:53 PM 36.7 °F 27.6 °F 36.5 °F 99% 30.04 in 10.0 mi NNE 15.0 mph 20.7 mph 0.03 in Rain Light Rain
1:13 PM 37.4 °F 27.8 °F 36.7 °F 97% 30.04 in 10.0 mi NNE 17.3 mph 23.0 mph N/A   Overcast
1:32 PM 36.9 °F 29.6 °F 36.5 °F 99% 30.05 in 10.0 mi NNE 10.4 mph 17.3 mph N/A   Overcast
1:53 PM 37.0 °F 29.3 °F 36.7 °F 99% 30.04 in 10.0 mi North 11.5 mph 20.7 mph N/A   Overcast
2:12 PM 37.6 °F 28.8 °F 37.2 °F 99% 30.03 in 10.0 mi NNE 15.0 mph 19.6 mph N/A   Overcast
2:33 PM 37.9 °F 30.9 °F 37.6 °F 99% 30.04 in 10.0 mi NNE 10.4 mph 20.7 mph N/A   Overcast
2:52 PM 38.1 °F 30.2 °F 37.6 °F 98% 30.03 in 10.0 mi NE 12.7 mph 21.9 mph N/A   Overcast
3:13 PM 39.4 °F 30.4 °F 38.8 °F 98% 30.03 in 10.0 mi NE 17.3 mph 23.0 mph N/A   Overcast
3:33 PM 41.7 °F 33.7 °F 34.2 °F 75% 30.03 in 10.0 mi NNE 16.1 mph 23.0 mph N/A   Overcast
3:52 PM 42.3 °F 36.3 °F 32.9 °F 69% 30.04 in 10.0 mi NE 10.4 mph 21.9 mph N/A   Overcast
4:13 PM 42.8 °F 36.2 °F 32.0 °F 66% 30.04 in 10.0 mi NNE 12.7 mph 21.9 mph N/A   Overcast
4:32 PM 43.2 °F 37.4 °F 32.0 °F 65% 30.05 in 10.0 mi NE 10.4 mph 17.3 mph N/A   Overcast
4:52 PM 43.0 °F 37.2 °F 31.6 °F 64% 30.07 in 10.0 mi NE 10.4 mph 17.3 mph N/A   Overcast
5:13 PM 43.0 °F 37.2 °F 30.9 °F 62% 30.07 in 10.0 mi NE 10.4 mph 16.1 mph N/A   Overcast
5:32 PM 43.0 °F 37.2 °F 30.2 °F 61% 30.07 in 10.0 mi NNE 10.4 mph 20.7 mph N/A   Overcast
5:53 PM 43.2 °F 37.4 °F 30.0 °F 60% 30.07 in 10.0 mi NE 10.4 mph 18.4 mph N/A   Overcast
6:12 PM 43.0 °F 36.0 °F 29.3 °F 59% 30.07 in 10.0 mi NE 13.8 mph 17.3 mph N/A   Overcast
6:33 PM 42.8 °F 37.0 °F 28.6 °F 57% 30.07 in 10.0 mi ENE 10.4 mph 18.4 mph N/A   Overcast
6:53 PM 42.8 °F 37.5 °F 28.6 °F 57% 30.08 in 10.0 mi NE 9.2 mph - N/A   Overcast
7:12 PM 42.3 °F 36.3 °F 29.7 °F 61% 30.09 in 10.0 mi ENE 10.4 mph 16.1 mph N/A   Overcast
7:33 PM 41.5 °F 35.9 °F 30.0 °F 64% 30.07 in 10.0 mi ENE 9.2 mph 16.1 mph N/A   Overcast
7:53 PM 41.0 °F 33.9 °F 28.2 °F 60% 30.06 in 10.0 mi NE 12.7 mph 23.0 mph N/A   Overcast
8:13 PM 40.3 °F 33.0 °F 27.9 °F 61% 30.05 in 10.0 mi NE 12.7 mph 16.1 mph N/A   Scattered Clouds
8:32 PM 40.1 °F 32.7 °F 27.5 °F 61% 30.05 in 10.0 mi NNE 12.7 mph 21.9 mph N/A   Scattered Clouds
8:52 PM 40.1 °F 33.2 °F 27.0 °F 59% 30.04 in 10.0 mi NE 11.5 mph 18.4 mph N/A   Scattered Clouds
9:13 PM 39.6 °F 32.1 °F 27.0 °F 61% 30.05 in 10.0 mi NNE 12.7 mph 19.6 mph N/A Rain Light Rain
9:52 PM 38.3 °F 31.9 °F 27.3 °F 65% 30.07 in 10.0 mi ENE 9.2 mph 16.1 mph 0.02 in Rain Light Rain
10:13 PM 37.4 °F 31.4 °F 27.5 °F 67% 30.09 in 7.0 mi ENE 8.1 mph - 0.02 in Rain Rain
10:32 PM 36.9 °F 34.3 °F 28.0 °F 70% 30.11 in 10.0 mi NNE 3.5 mph - 0.04 in Rain Light Rain
10:52 PM 36.9 °F 31.4 °F 27.3 °F 68% 30.15 in 7.0 mi NNE 6.9 mph - 0.05 in Snow Light Snow
11:13 PM 35.8 °F 29.4 °F 28.0 °F 73% 30.15 in 3.0 mi NNE 8.1 mph - 0.01 in Snow Light Snow
11:32 PM 34.9 °F 28.3 °F 28.4 °F 77% 30.16 in 2.5 mi North 8.1 mph - 0.03 in Snow Light Snow
11:53 PM 33.4 °F 23.1 °F 28.9 °F 84% 30.15 in 2.0 mi NNE 16.1 mph 20.7 mph 0.04 in Snow Light Snow